Time;durP1;ratioP1;P1;durP2;ratioP2;P2;SDS_P1;SDS_P2;PMS_P1;PMS_P2;Temp;Humidity;BMP_temperature;BMP_pressure;BME280_temperature;BME280_humidity;BME280_pressure;Samples;Min_cycle;Max_cycle;Signal;HPM_P1;HPM_P2
2023/08/06 00:02:17;;;;;;;0.00;0.00;;;;;;;15.29;100.00;99743.47;5013360;28;20181;-87
2023/08/06 00:04:42;;;;;;;0.00;0.00;;;;;;;15.37;100.00;99747.19;5006618;28;20205;-87
2023/08/06 00:07:07;;;;;;;0.00;0.00;;;;;;;15.45;100.00;99740.66;5003133;28;20213;-86
2023/08/06 00:09:32;;;;;;;0.00;0.00;;;;;;;15.34;100.00;99734.94;4996851;28;20235;-88
2023/08/06 00:11:58;;;;;;;0.00;0.00;;;;;;;15.25;100.00;99723.31;5021874;28;20541;-88
2023/08/06 00:14:23;;;;;;;0.00;0.00;;;;;;;15.26;100.00;99716.66;5022109;28;20311;-88
2023/08/06 00:16:48;;;;;;;0.00;0.00;;;;;;;15.39;100.00;99733.84;5004550;28;20199;-87
2023/08/06 00:19:13;;;;;;;0.00;0.00;;;;;;;15.34;100.00;99718.44;5005279;28;20276;-87
2023/08/06 00:21:39;;;;;;;0.00;0.00;;;;;;;15.52;100.00;99712.50;5006382;28;20188;-87
2023/08/06 00:24:04;;;;;;;0.00;0.00;;;;;;;15.68;100.00;99716.00;5008137;28;20555;-87
2023/08/06 00:26:29;;;;;;;0.00;0.00;;;;;;;15.80;100.00;99713.09;5008498;28;20673;-89
2023/08/06 00:28:55;;;;;;;0.00;0.00;;;;;;;15.90;100.00;99706.16;5004956;28;20215;-87
2023/08/06 00:31:20;;;;;;;1.80;1.70;;;;;;;15.92;100.00;99709.38;5013140;28;20645;-88
2023/08/06 00:33:45;;;;;;;0.00;0.00;;;;;;;15.94;100.00;99699.56;5024491;28;20180;-87
2023/08/06 00:36:11;;;;;;;0.00;0.00;;;;;;;16.01;100.00;99691.44;5028365;28;20196;-86
2023/08/06 00:38:36;;;;;;;0.00;0.00;;;;;;;16.10;100.00;99687.66;5021858;28;20198;-88
2023/08/06 00:41:01;;;;;;;0.00;0.00;;;;;;;16.12;100.00;99691.63;5018048;28;20180;-87
2023/08/06 00:43:27;;;;;;;0.00;0.00;;;;;;;16.16;100.00;99675.16;4999835;28;20604;-86
2023/08/06 00:45:52;;;;;;;0.00;0.00;;;;;;;16.17;100.00;99674.78;5007529;28;20270;-86
2023/08/06 00:48:18;;;;;;;0.00;0.00;;;;;;;16.05;100.00;99670.22;5001125;28;20190;-87
2023/08/06 00:50:43;;;;;;;0.00;0.00;;;;;;;15.90;100.00;99665.63;5021524;28;20274;-87
2023/08/06 00:53:08;;;;;;;0.00;0.00;;;;;;;15.92;100.00;99657.81;5004107;28;20187;-88
2023/08/06 00:55:34;;;;;;;0.30;0.30;;;;;;;15.84;100.00;99658.06;5022503;28;20758;-88
2023/08/06 00:58:00;;;;;;;0.00;0.00;;;;;;;15.85;100.00;99648.63;5025559;28;20572;-87
2023/08/06 01:00:25;;;;;;;0.00;0.00;;;;;;;15.88;100.00;99647.88;5007587;28;20172;-87
2023/08/06 01:02:52;;;;;;;0.00;0.00;;;;;;;15.70;100.00;99642.84;5004079;28;20184;-87
2023/08/06 01:05:17;;;;;;;0.00;0.00;;;;;;;15.81;100.00;99653.28;5002616;28;20203;-87
2023/08/06 01:08:10;;;;;;;0.00;0.00;;;;;;;15.91;100.00;99653.47;4997543;28;20188;-88
2023/08/06 01:10:59;;;;;;;0.00;0.00;;;;;;;15.47;100.00;99634.50;4996247;28;20182;-87
2023/08/06 01:13:57;;;;;;;0.00;0.00;;;;;;;15.39;100.00;99637.50;5004518;28;20184;-86
2023/08/06 01:16:24;;;;;;;0.00;0.00;;;;;;;15.27;100.00;99640.41;5015499;28;20228;-88
2023/08/06 01:18:49;;;;;;;0.00;0.00;;;;;;;15.07;100.00;99637.66;5024705;28;20203;-88
2023/08/06 01:21:16;;;;;;;0.00;0.00;;;;;;;15.18;100.00;99641.41;5001914;28;20671;-87
2023/08/06 01:23:46;;;;;;;0.00;0.00;;;;;;;15.10;100.00;99658.16;5007873;28;20180;-86
2023/08/06 01:26:22;;;;;;;0.00;0.00;;;;;;;15.33;100.00;99649.94;5026036;28;20178;-87
2023/08/06 01:29:06;;;;;;;0.00;0.00;;;;;;;15.37;100.00;99643.38;5010358;28;20218;-87
2023/08/06 01:31:35;;;;;;;0.00;0.00;;;;;;;15.28;100.00;99637.28;5011183;28;20182;-87
2023/08/06 01:34:01;;;;;;;0.00;0.00;;;;;;;15.06;100.00;99640.78;5024986;28;20228;-86
2023/08/06 01:36:28;;;;;;;0.00;0.00;;;;;;;14.89;100.00;99637.25;5007727;28;20289;-86
2023/08/06 01:38:53;;;;;;;0.00;0.00;;;;;;;14.84;100.00;99639.50;5026008;28;20238;-87
2023/08/06 01:41:18;;;;;;;0.00;0.00;;;;;;;14.79;100.00;99646.09;5006330;28;20266;-87
2023/08/06 01:43:44;;;;;;;0.00;0.00;;;;;;;14.97;100.00;99635.47;5010742;28;20267;-87
2023/08/06 01:46:09;;;;;;;0.00;0.00;;;;;;;15.15;100.00;99633.88;5010951;28;20180;-88
2023/08/06 01:48:34;;;;;;;0.00;0.00;;;;;;;15.28;100.00;99636.50;5011284;28;20180;-88
2023/08/06 01:51:00;;;;;;;0.00;0.00;;;;;;;15.37;100.00;99629.63;5028242;28;20180;-88
2023/08/06 01:53:25;;;;;;;0.00;0.00;;;;;;;15.44;100.00;99621.47;5010674;28;20180;-87
2023/08/06 01:55:50;;;;;;;0.00;0.00;;;;;;;15.48;100.00;99616.84;5020180;28;20199;-87
2023/08/06 01:58:15;;;;;;;0.00;0.00;;;;;;;15.44;100.00;99612.44;5010698;28;20721;-87
2023/08/06 02:00:41;;;;;;;0.00;0.00;;;;;;;15.50;100.00;99605.47;5019818;28;20175;-87
2023/08/06 02:03:06;;;;;;;0.00;0.00;;;;;;;15.51;100.00;99598.00;5010460;28;20184;-87
2023/08/06 02:05:32;;;;;;;0.00;0.00;;;;;;;15.40;100.00;99586.78;5009898;28;20286;-87
2023/08/06 02:07:57;;;;;;;0.00;0.00;;;;;;;15.37;100.00;99595.78;5024853;28;20172;-88
2023/08/06 02:10:22;;;;;;;0.00;0.00;;;;;;;15.26;100.00;99594.78;5014159;28;20180;-88
2023/08/06 02:12:48;;;;;;;0.00;0.00;;;;;;;15.40;100.00;99601.34;5008165;28;20183;-87
2023/08/06 02:15:13;;;;;;;0.00;0.00;;;;;;;15.51;100.00;99607.06;5004327;28;20301;-87
2023/08/06 02:17:38;;;;;;;0.00;0.00;;;;;;;15.46;100.00;99597.13;5027961;28;20665;-87
2023/08/06 02:20:04;;;;;;;0.00;0.00;;;;;;;15.47;100.00;99601.47;5027985;28;20650;-87
2023/08/06 02:22:29;;;;;;;0.00;0.00;;;;;;;15.48;100.00;99600.34;5010011;28;20230;-86
2023/08/06 02:24:55;;;;;;;0.00;0.00;;;;;;;15.57;100.00;99597.34;5006691;28;20205;-87
2023/08/06 02:27:20;;;;;;;0.00;0.00;;;;;;;15.46;100.00;99588.06;5006872;28;20658;-87
2023/08/06 02:29:45;;;;;;;0.00;0.00;;;;;;;15.36;100.00;99594.19;5014771;28;20184;-87
2023/08/06 02:32:11;;;;;;;0.27;0.27;;;;;;;15.30;100.00;99587.38;5006174;28;20235;-87
2023/08/06 02:34:36;;;;;;;0.30;0.30;;;;;;;15.28;100.00;99586.94;5007178;28;20216;-87
2023/08/06 02:37:01;;;;;;;0.00;0.00;;;;;;;15.27;100.00;99583.41;5031215;28;20172;-88
2023/08/06 02:39:26;;;;;;;0.00;0.00;;;;;;;15.29;100.00;99586.59;5005967;28;20191;-87
2023/08/06 02:41:52;;;;;;;0.00;0.00;;;;;;;15.26;100.00;99584.56;5009071;28;20194;-87
2023/08/06 02:44:17;;;;;;;0.00;0.00;;;;;;;15.25;100.00;99577.47;5009074;28;20741;-87
2023/08/06 02:46:44;;;;;;;0.00;0.00;;;;;;;15.38;100.00;99578.13;5001223;28;20180;-88
2023/08/06 02:49:10;;;;;;;0.00;0.00;;;;;;;15.32;100.00;99565.78;5009784;28;20184;-87
2023/08/06 02:51:35;;;;;;;0.00;0.00;;;;;;;15.39;100.00;99563.19;5026446;28;20180;-87
2023/08/06 02:54:00;;;;;;;0.53;0.53;;;;;;;15.50;100.00;99561.44;5005913;28;20246;-87
2023/08/06 02:56:26;;;;;;;0.00;0.00;;;;;;;15.38;100.00;99554.13;5005785;28;20693;-87
2023/08/06 02:58:51;;;;;;;0.00;0.00;;;;;;;15.39;100.00;99550.22;5026451;28;20226;-88
2023/08/06 03:01:16;;;;;;;0.00;0.00;;;;;;;15.14;100.00;99549.75;5009376;28;20187;-86
2023/08/06 03:03:42;;;;;;;0.00;0.00;;;;;;;14.97;100.00;99546.66;5018884;28;20188;-87
2023/08/06 03:06:07;;;;;;;0.00;0.00;;;;;;;14.98;100.00;99551.00;5009655;28;20230;-87
2023/08/06 03:08:32;;;;;;;2.50;2.47;;;;;;;15.12;100.00;99548.53;5009584;28;20555;-88
2023/08/06 03:10:58;;;;;;;0.00;0.00;;;;;;;14.98;100.00;99543.53;5023529;28;20181;-86
2023/08/06 03:13:23;;;;;;;0.00;0.00;;;;;;;15.06;100.00;99539.78;5005701;28;20212;-87
2023/08/06 03:15:56;;;;;;;0.00;0.00;;;;;;;15.09;100.00;99541.00;5025628;28;20230;-87
2023/08/06 03:18:21;;;;;;;0.00;0.00;;;;;;;15.24;100.00;99545.63;5002231;28;20207;-88
2023/08/06 03:20:47;;;;;;;0.00;0.00;;;;;;;15.36;100.00;99539.16;5005576;28;20658;-87
2023/08/06 03:23:12;;;;;;;0.00;0.00;;;;;;;15.37;100.00;99532.47;5023076;28;20181;-87
2023/08/06 03:25:37;;;;;;;0.00;0.00;;;;;;;15.42;100.00;99530.22;5006789;28;20200;-87
2023/08/06 03:28:03;;;;;;;0.00;0.00;;;;;;;15.53;100.00;99530.41;5008568;28;20247;-87
2023/08/06 03:30:28;;;;;;;0.00;0.00;;;;;;;15.57;100.00;99531.25;5008535;28;20634;-88
2023/08/06 03:32:53;;;;;;;0.00;0.00;;;;;;;15.62;100.00;99524.66;5009024;28;20183;-88
2023/08/06 03:35:19;;;;;;;0.00;0.00;;;;;;;15.46;100.00;99520.06;5001988;28;20216;-89
2023/08/06 03:37:44;;;;;;;0.00;0.00;;;;;;;15.43;100.00;99523.53;5015118;28;20238;-87
2023/08/06 03:40:10;;;;;;;0.10;0.10;;;;;;;15.41;100.00;99520.38;5008794;28;20183;-87
2023/08/06 03:42:35;;;;;;;0.00;0.00;;;;;;;15.48;100.00;99525.22;4999979;28;20230;-87
2023/08/06 03:45:00;;;;;;;0.00;0.00;;;;;;;15.51;100.00;99518.19;5007770;28;20214;-88
2023/08/06 03:47:26;;;;;;;0.00;0.00;;;;;;;15.35;100.00;99507.28;5001149;28;20563;-88
2023/08/06 03:49:51;;;;;;;0.00;0.00;;;;;;;15.40;100.00;99510.53;5007737;28;20180;-87
2023/08/06 03:52:16;;;;;;;0.00;0.00;;;;;;;15.49;100.00;99513.03;5001983;28;20545;-87
2023/08/06 03:54:43;;;;;;;0.00;0.00;;;;;;;15.22;100.00;99505.88;5006432;28;20212;-88
2023/08/06 03:57:08;;;;;;;0.00;0.00;;;;;;;15.21;100.00;99502.31;5008247;28;20175;-88
2023/08/06 03:59:34;;;;;;;7.07;6.43;;;;;;;15.29;100.00;99494.97;5008031;28;20267;-86
2023/08/06 04:01:59;;;;;;;0.00;0.00;;;;;;;15.10;100.00;99484.81;5005125;28;20192;-86
2023/08/06 04:04:25;;;;;;;0.00;0.00;;;;;;;15.11;100.00;99489.16;5012364;28;20203;-87
2023/08/06 04:06:50;;;;;;;0.00;0.00;;;;;;;14.92;100.00;99486.44;5023047;28;20650;-87
2023/08/06 04:09:15;;;;;;;0.00;0.00;;;;;;;14.81;100.00;99488.97;5004172;28;20327;-86
2023/08/06 04:11:41;;;;;;;0.00;0.00;;;;;;;14.95;100.00;99494.75;5016760;28;20181;-87
2023/08/06 04:14:06;;;;;;;0.00;0.00;;;;;;;14.47;100.00;99487.91;4997026;28;20291;-87
2023/08/06 04:16:31;;;;;;;0.00;0.00;;;;;;;14.13;100.00;99489.47;5028117;28;20704;-86
2023/08/06 04:18:58;;;;;;;0.00;0.00;;;;;;;14.15;100.00;99509.94;5008374;28;20207;-88
2023/08/06 04:21:23;;;;;;;0.00;0.00;;;;;;;14.08;100.00;99515.28;5005687;28;20169;-89
2023/08/06 04:23:48;;;;;;;1.00;1.00;;;;;;;13.91;100.00;99505.47;5012287;28;20236;-89
2023/08/06 04:26:14;;;;;;;0.00;0.00;;;;;;;13.99;100.00;99511.91;5004605;28;20204;-87
2023/08/06 04:28:39;;;;;;;0.00;0.00;;;;;;;14.23;100.00;99517.19;5004536;28;20611;-87
2023/08/06 04:31:04;;;;;;;0.00;0.00;;;;;;;14.44;100.00;99516.09;5004633;28;20215;-87
2023/08/06 04:33:30;;;;;;;0.00;0.00;;;;;;;14.58;100.00;99521.88;5021723;28;20210;-86
2023/08/06 04:35:55;;;;;;;0.00;0.00;;;;;;;14.64;100.00;99520.47;5004451;28;20246;-87
2023/08/06 04:38:21;;;;;;;0.00;0.00;;;;;;;14.52;100.00;99506.84;5004356;28;20176;-87
2023/08/06 04:40:46;;;;;;;0.00;0.00;;;;;;;14.62;100.00;99506.28;5024196;28;20260;-86
2023/08/06 04:43:11;;;;;;;0.00;0.00;;;;;;;14.79;100.00;99513.28;5001638;28;20559;-88
2023/08/06 04:45:36;;;;;;;0.00;0.00;;;;;;;14.95;100.00;99515.97;5005520;28;20192;-87
2023/08/06 04:48:02;;;;;;;0.00;0.00;;;;;;;15.04;100.00;99522.03;5009509;28;20181;-87
2023/08/06 04:50:27;;;;;;;0.00;0.00;;;;;;;15.11;100.00;99522.16;5004853;28;20266;-87
2023/08/06 04:52:52;;;;;;;0.10;0.10;;;;;;;15.00;100.00;99518.41;5006826;28;20183;-87
2023/08/06 04:55:18;;;;;;;0.00;0.00;;;;;;;15.09;100.00;99522.53;5007834;28;20226;-88
2023/08/06 04:57:43;;;;;;;0.00;0.00;;;;;;;14.85;100.00;99507.13;5006102;28;20179;-87
2023/08/06 05:00:08;;;;;;;0.00;0.00;;;;;;;14.62;100.00;99511.00;5004417;28;20204;-87
2023/08/06 05:02:34;;;;;;;0.00;0.00;;;;;;;14.33;100.00;99507.59;5003835;28;20183;-87
2023/08/06 05:04:59;;;;;;;0.00;0.00;;;;;;;14.37;100.00;99518.66;5004073;28;20219;-87
2023/08/06 05:07:25;;;;;;;0.00;0.00;;;;;;;14.59;100.00;99532.53;5022327;28;20180;-88
2023/08/06 05:09:50;;;;;;;0.00;0.00;;;;;;;14.77;100.00;99530.16;5004107;28;20196;-88
2023/08/06 05:12:16;;;;;;;0.00;0.00;;;;;;;14.94;100.00;99528.13;5021577;28;20183;-87
2023/08/06 05:14:41;;;;;;;0.00;0.00;;;;;;;15.02;100.00;99521.59;5021191;28;20693;-87
2023/08/06 05:17:07;;;;;;;0.00;0.00;;;;;;;15.06;100.00;99527.97;5000912;28;20233;-88
2023/08/06 05:19:32;;;;;;;0.00;0.00;;;;;;;15.13;100.00;99519.84;5007481;28;20175;-87
2023/08/06 05:21:57;;;;;;;0.00;0.00;;;;;;;15.26;100.00;99521.28;5003636;28;20208;-86
2023/08/06 05:24:22;;;;;;;0.00;0.00;;;;;;;15.24;100.00;99515.34;5021350;28;20196;-87
2023/08/06 05:26:48;;;;;;;0.00;0.00;;;;;;;15.16;100.00;99517.16;5023575;28;20188;-88
2023/08/06 05:29:13;;;;;;;2.90;2.00;;;;;;;15.26;100.00;99523.22;5006937;28;20662;-88
2023/08/06 05:31:39;;;;;;;0.00;0.00;;;;;;;15.23;100.00;99518.47;5005973;28;20180;-87
2023/08/06 05:34:04;;;;;;;0.00;0.00;;;;;;;15.18;100.00;99503.81;5004168;28;20301;-87
2023/08/06 05:36:29;;;;;;;0.00;0.00;;;;;;;15.27;100.00;99505.56;5003992;28;20215;-88
2023/08/06 05:38:55;;;;;;;0.00;0.00;;;;;;;15.26;100.00;99499.25;5003455;28;20189;-87
2023/08/06 05:41:20;;;;;;;0.00;0.00;;;;;;;15.26;100.00;99504.75;4995360;28;20278;-87
2023/08/06 05:43:45;;;;;;;0.00;0.00;;;;;;;15.22;100.00;99505.88;5003507;28;20183;-86
2023/08/06 05:46:10;;;;;;;0.00;0.00;;;;;;;15.17;100.00;99518.75;5003836;28;20702;-87
2023/08/06 05:48:36;;;;;;;0.20;0.20;;;;;;;15.27;100.00;99513.81;5021907;28;20259;-87
2023/08/06 05:51:01;;;;;;;0.07;0.07;;;;;;;15.30;100.00;99511.13;5007197;28;20183;-87
2023/08/06 05:53:26;;;;;;;0.00;0.00;;;;;;;15.30;100.00;99511.13;5007423;28;20186;-87
2023/08/06 05:55:52;;;;;;;0.00;0.00;;;;;;;15.32;100.00;99508.00;5004434;28;20212;-87
2023/08/06 05:58:17;;;;;;;0.00;0.00;;;;;;;15.40;100.00;99513.28;5013327;28;20255;-87
2023/08/06 06:00:43;;;;;;;0.00;0.00;;;;;;;15.50;100.00;99505.56;5023073;28;20176;-88
2023/08/06 06:03:08;;;;;;;0.40;0.40;;;;;;;15.54;100.00;99506.41;5027740;28;20180;-87
2023/08/06 06:05:34;;;;;;;0.00;0.00;;;;;;;15.63;100.00;99493.25;5021488;28;20254;-88
2023/08/06 06:07:59;;;;;;;0.00;0.00;;;;;;;15.74;100.00;99503.25;5008456;28;20199;-87
2023/08/06 06:10:24;;;;;;;0.00;0.00;;;;;;;15.78;100.00;99492.31;5010640;28;20180;-87
2023/08/06 06:12:49;;;;;;;0.00;0.00;;;;;;;15.82;100.00;99495.09;5008812;28;20179;-87
2023/08/06 06:15:15;;;;;;;0.10;0.10;;;;;;;15.81;100.00;99494.31;5016216;28;20212;-87
2023/08/06 06:17:40;;;;;;;0.50;0.50;;;;;;;15.87;100.00;99495.59;5014252;28;20179;-87
2023/08/06 06:20:06;;;;;;;0.00;0.00;;;;;;;15.82;100.00;99484.88;5014167;28;20230;-87
2023/08/06 06:22:31;;;;;;;0.00;0.00;;;;;;;15.94;100.00;99489.41;5030809;28;20187;-85
2023/08/06 06:24:56;;;;;;;0.00;0.00;;;;;;;15.97;100.00;99483.94;5015211;28;20251;-87
2023/08/06 06:27:22;;;;;;;0.00;0.00;;;;;;;16.03;100.00;99489.91;5032428;28;20176;-86
2023/08/06 06:29:47;;;;;;;0.00;0.00;;;;;;;16.08;100.00;99486.84;5023752;28;20196;-86
2023/08/06 06:32:12;;;;;;;0.10;0.10;;;;;;;16.20;100.00;99494.91;5005928;28;20188;-86
2023/08/06 06:34:38;;;;;;;0.00;0.00;;;;;;;16.16;100.00;99480.25;5016595;28;20200;-87
2023/08/06 06:37:03;;;;;;;0.00;0.00;;;;;;;16.13;100.00;99492.03;5018677;28;20207;-87
2023/08/06 06:39:29;;;;;;;0.00;0.00;;;;;;;16.14;100.00;99493.63;5018891;28;20199;-87
2023/08/06 06:41:54;;;;;;;0.00;0.00;;;;;;;16.22;100.00;99495.31;5016928;28;20185;-87
2023/08/06 06:44:20;;;;;;;0.10;0.10;;;;;;;16.11;100.00;99493.59;5025653;28;20207;-86
2023/08/06 06:46:45;;;;;;;0.00;0.00;;;;;;;16.18;100.00;99493.66;4999195;28;20685;-86
2023/08/06 06:49:11;;;;;;;0.00;0.00;;;;;;;16.25;100.00;99493.78;5008040;28;20184;-87
2023/08/06 06:51:36;;;;;;;0.00;0.00;;;;;;;16.23;100.00;99476.81;5017565;28;20169;-87
2023/08/06 06:54:01;;;;;;;0.00;0.00;;;;;;;16.08;100.00;99477.81;5014534;28;20266;-86
2023/08/06 06:56:27;;;;;;;0.00;0.00;;;;;;;16.06;100.00;99478.97;5007199;28;20206;-85
2023/08/06 06:58:52;;;;;;;0.00;0.00;;;;;;;16.18;100.00;99479.88;4999674;28;20181;-88
2023/08/06 07:01:17;;;;;;;0.00;0.00;;;;;;;16.31;100.00;99482.03;5022447;28;20212;-86
2023/08/06 07:03:43;;;;;;;0.00;0.00;;;;;;;16.46;100.00;99479.47;5008005;28;20180;-86
2023/08/06 07:06:08;;;;;;;0.00;0.00;;;;;;;16.46;100.00;99468.44;5006129;28;20556;-87
2023/08/06 07:08:33;;;;;;;0.00;0.00;;;;;;;16.31;100.00;99461.97;4997474;28;20195;-86
2023/08/06 07:11:06;;;;;;;0.00;0.00;;;;;;;16.48;100.00;99466.91;4997633;28;20267;-86
2023/08/06 07:13:32;;;;;;;0.20;0.20;;;;;;;16.62;100.00;99469.03;5022984;28;20188;-86
2023/08/06 07:15:58;;;;;;;0.00;0.00;;;;;;;16.73;100.00;99464.47;5009006;28;20549;-87
2023/08/06 07:18:23;;;;;;;0.00;0.00;;;;;;;16.75;100.00;99464.09;5027346;28;20207;-87
2023/08/06 07:20:53;;;;;;;0.00;0.00;;;;;;;16.76;100.00;99465.69;5007049;28;20198;-86
2023/08/06 07:23:20;;;;;;;0.00;0.00;;;;;;;16.83;100.00;99461.06;5020881;28;20172;-86
2023/08/06 07:25:46;;;;;;;0.00;0.00;;;;;;;16.94;100.00;99461.97;4997405;28;20283;-86
2023/08/06 07:28:13;;;;;;;0.00;0.00;;;;;;;17.02;100.00;99456.50;5021017;28;20176;-87
2023/08/06 07:30:39;;;;;;;0.00;0.00;;;;;;;17.03;100.00;99449.81;5026132;28;20677;-87
2023/08/06 07:33:04;;;;;;;0.00;0.00;;;;;;;17.15;100.00;99461.38;5002061;28;20205;-86
2023/08/06 07:35:30;;;;;;;0.00;0.00;;;;;;;17.20;100.00;99447.22;5025643;28;20635;-86
2023/08/06 07:37:55;;;;;;;0.13;0.10;;;;;;;17.17;100.00;99445.22;5007512;28;20175;-88
2023/08/06 07:40:20;;;;;;;0.20;0.20;;;;;;;17.07;100.00;99448.69;5017576;28;20259;-84
2023/08/06 07:42:46;;;;;;;0.00;0.00;;;;;;;17.10;100.00;99441.63;5008825;28;20189;-85
2023/08/06 07:45:11;;;;;;;0.00;0.00;;;;;;;17.19;100.00;99439.31;5003534;28;20188;-85
2023/08/06 07:47:36;;;;;;;0.00;0.00;;;;;;;17.23;100.00;99445.69;4995474;28;20234;-84
2023/08/06 07:50:02;;;;;;;0.57;0.47;;;;;;;17.33;100.00;99444.97;5018702;28;20219;-84
2023/08/06 07:52:27;;;;;;;0.17;0.17;;;;;;;17.32;100.00;99445.38;4997364;28;20204;-85
2023/08/06 07:54:52;;;;;;;0.20;0.10;;;;;;;17.23;100.00;99440.97;4997570;28;20629;-85
2023/08/06 07:57:17;;;;;;;0.00;0.00;;;;;;;17.43;100.00;99449.81;5000042;28;20181;-85
2023/08/06 07:59:43;;;;;;;0.00;0.00;;;;;;;17.56;100.00;99442.03;5006025;28;20180;-85
2023/08/06 08:02:08;;;;;;;0.00;0.00;;;;;;;17.46;100.00;99438.00;5000734;28;20192;-86
2023/08/06 08:04:33;;;;;;;0.00;0.00;;;;;;;17.55;100.00;99434.91;5014991;28;20272;-85
2023/08/06 08:06:59;;;;;;;0.00;0.00;;;;;;;17.42;100.00;99439.16;5009770;28;20218;-86
2023/08/06 08:09:24;;;;;;;0.00;0.00;;;;;;;17.48;100.00;99429.31;5028054;28;20591;-86
2023/08/06 08:11:50;;;;;;;0.00;0.00;;;;;;;17.53;100.00;99435.31;4999981;28;20177;-86
2023/08/06 08:14:15;;;;;;;0.00;0.00;;;;;;;17.76;100.00;99437.84;5001268;28;20266;-85
2023/08/06 08:16:41;;;;;;;0.00;0.00;;;;;;;17.57;100.00;99415.19;5009905;28;20219;-85
2023/08/06 08:19:06;;;;;;;0.00;0.00;;;;;;;17.73;100.00;99429.53;5011944;28;20479;-85
2023/08/06 08:21:31;;;;;;;0.00;0.00;;;;;;;17.92;100.00;99434.00;5000838;28;20177;-85
2023/08/06 08:23:58;;;;;;;0.00;0.00;;;;;;;18.01;100.00;99429.72;5017225;28;20697;-85
2023/08/06 08:26:24;;;;;;;0.73;0.73;;;;;;;17.92;100.00;99425.72;5026619;28;20164;-85
2023/08/06 08:28:49;;;;;;;0.37;0.30;;;;;;;17.82;100.00;99425.28;5007095;28;20274;-85
2023/08/06 08:31:16;;;;;;;0.00;0.00;;;;;;;17.79;100.00;99420.53;5002380;28;20268;-85
2023/08/06 08:33:41;;;;;;;0.10;0.10;;;;;;;17.99;100.00;99432.09;5004858;28;20195;-85
2023/08/06 08:36:06;;;;;;;0.00;0.00;;;;;;;17.99;100.00;99429.31;5007046;28;20200;-85
2023/08/06 08:38:32;;;;;;;0.00;0.00;;;;;;;17.83;99.01;99423.31;5011047;28;20638;-85
2023/08/06 08:40:57;;;;;;;0.10;0.10;;;;;;;17.89;98.40;99423.72;5017454;28;20194;-84
2023/08/06 08:43:23;;;;;;;0.00;0.00;;;;;;;17.82;97.75;99413.44;5000612;28;20176;-84
2023/08/06 08:45:58;;;;;;;0.00;0.00;;;;;;;18.06;97.17;99414.75;4998855;28;20203;-84
2023/08/06 08:48:24;;;;;;;0.00;0.00;;;;;;;18.03;98.64;99415.50;5017237;28;20180;-86
2023/08/06 08:50:50;;;;;;;0.30;0.30;;;;;;;17.93;99.27;99413.47;5017643;28;20203;-85
2023/08/06 08:53:16;;;;;;;0.00;0.00;;;;;;;17.92;100.00;99415.44;4998341;28;20647;-85
2023/08/06 08:55:44;;;;;;;0.00;0.00;;;;;;;17.96;98.85;99410.75;5017181;28;20219;-85
2023/08/06 08:58:10;;;;;;;0.13;0.13;;;;;;;18.26;97.62;99418.00;4998544;28;20180;-86
2023/08/06 09:00:35;;;;;;;0.00;0.00;;;;;;;18.44;96.08;99419.66;4997947;28;20183;-84
2023/08/06 09:03:02;;;;;;;0.00;0.00;;;;;;;18.46;94.75;99405.44;4995487;28;20191;-84
2023/08/06 09:05:30;;;;;;;0.00;0.00;;;;;;;18.65;94.90;99412.63;4998459;28;20192;-85
2023/08/06 09:08:04;;;;;;;0.00;0.00;;;;;;;18.63;96.28;99412.22;5018651;28;20634;-86
2023/08/06 09:10:30;;;;;;;0.33;0.33;;;;;;;18.50;96.03;99399.91;5001165;28;20636;-86
2023/08/06 09:12:56;;;;;;;0.10;0.10;;;;;;;18.56;96.25;99403.91;5018511;28;20243;-86
2023/08/06 09:15:26;;;;;;;0.00;0.00;;;;;;;18.72;95.19;99407.13;5002886;28;20212;-85
2023/08/06 09:17:55;;;;;;;0.00;0.00;;;;;;;18.70;92.45;99409.50;5016913;28;20256;-87
2023/08/06 09:20:20;;;;;;;0.00;0.00;;;;;;;18.70;92.15;99399.22;5001966;28;20533;-86
2023/08/06 09:22:47;;;;;;;0.00;0.00;;;;;;;19.05;95.04;99410.75;5001281;28;20187;-88
2023/08/06 09:25:22;;;;;;;0.00;0.00;;;;;;;19.27;93.19;99410.38;4998759;28;20208;-86
2023/08/06 09:27:47;;;;;;;0.00;0.00;;;;;;;19.25;91.29;99390.59;4997969;28;20180;-85
2023/08/06 09:30:30;;;;;;;0.30;0.30;;;;;;;19.26;89.47;99394.16;4999047;28;20172;-85
2023/08/06 09:32:55;;;;;;;0.10;0.10;;;;;;;19.04;89.41;99385.03;4995401;28;20203;-86
2023/08/06 09:35:21;;;;;;;0.00;0.00;;;;;;;18.97;90.40;99393.34;4998539;28;20204;-87
2023/08/06 09:37:47;;;;;;;0.23;0.23;;;;;;;19.11;89.53;99390.59;5004272;28;20235;-85
2023/08/06 09:40:29;;;;;;;0.00;0.00;;;;;;;18.98;90.25;99395.72;5016340;28;20179;-86
2023/08/06 09:42:55;;;;;;;0.10;0.10;;;;;;;18.75;90.32;99398.03;5024696;28;20188;-86
2023/08/06 09:45:21;;;;;;;0.03;0.03;;;;;;;18.81;90.74;99392.94;5015911;28;20204;-85
2023/08/06 09:47:50;;;;;;;0.43;0.43;;;;;;;18.70;89.44;99381.84;5006976;28;20207;-86
2023/08/06 09:50:19;;;;;;;0.00;0.00;;;;;;;18.76;87.40;99376.69;5012532;28;20290;-86
2023/08/06 09:52:46;;;;;;;0.00;0.00;;;;;;;18.77;85.15;99369.97;5007315;28;20283;-86
2023/08/06 09:55:12;;;;;;;0.00;0.00;;;;;;;18.80;85.64;99375.50;5012306;28;20555;-86
2023/08/06 09:57:37;;;;;;;0.00;0.00;;;;;;;19.03;85.91;99375.94;5016959;28;20184;-85
2023/08/06 10:00:03;;;;;;;0.00;0.00;;;;;;;19.31;86.03;99388.22;5003647;28;20639;-84
2023/08/06 10:02:29;;;;;;;0.00;0.00;;;;;;;19.14;83.58;99369.63;5010792;28;20230;-85
2023/08/06 10:04:55;;;;;;;0.00;0.00;;;;;;;19.17;83.77;99364.09;5010803;28;20294;-86
2023/08/06 10:07:22;;;;;;;2.93;1.10;;;;;;;19.29;84.41;99360.94;5021729;28;20208;-86
2023/08/06 10:09:47;;;;;;;0.00;0.00;;;;;;;19.51;86.20;99372.75;5033874;28;20650;-85
2023/08/06 10:12:14;;;;;;;0.00;0.00;;;;;;;19.69;85.31;99372.78;5014839;28;20183;-87
2023/08/06 10:14:41;;;;;;;0.00;0.00;;;;;;;19.74;83.35;99372.38;5031459;28;20223;-85
2023/08/06 10:17:07;;;;;;;0.33;0.33;;;;;;;19.91;82.90;99365.97;5002319;28;20175;-86
2023/08/06 10:19:33;;;;;;;0.30;0.30;;;;;;;19.87;80.90;99347.78;5026438;28;20184;-87
2023/08/06 10:22:16;;;;;;;0.00;0.00;;;;;;;20.14;81.33;99361.97;4997265;28;20247;-85
2023/08/06 10:24:54;;;;;;;0.20;0.20;;;;;;;20.40;81.00;99366.22;5006716;28;20203;-85
2023/08/06 10:27:35;;;;;;;0.20;0.20;;;;;;;20.25;76.27;99340.50;5009034;28;20184;-86
2023/08/06 10:30:31;;;;;;;0.00;0.00;;;;;;;20.52;76.32;99351.09;5013464;28;20733;-86
2023/08/06 10:33:00;;;;;;;0.03;0.03;;;;;;;20.39;74.33;99339.63;4988860;28;20277;-85
2023/08/06 10:35:48;;;;;;;0.20;0.20;;;;;;;20.41;75.07;99338.09;5008116;28;20215;-85
2023/08/06 10:38:21;;;;;;;0.00;0.00;;;;;;;20.54;73.23;99332.84;5008441;28;20665;-87
2023/08/06 10:41:01;;;;;;;0.00;0.00;;;;;;;20.48;71.55;99323.38;4997997;28;20186;-85
2023/08/06 10:43:30;;;;;;;0.57;0.57;;;;;;;20.25;72.14;99309.19;5012186;28;20190;-86
2023/08/06 10:45:56;;;;;;;0.13;0.13;;;;;;;19.98;71.85;99308.94;5008177;28;20451;-86
2023/08/06 10:48:38;;;;;;;0.13;0.10;;;;;;;19.97;74.08;99313.69;5016246;28;20191;-87
2023/08/06 10:51:07;;;;;;;0.00;0.00;;;;;;;20.45;75.19;99324.19;5008280;28;20263;-86
2023/08/06 10:53:32;;;;;;;0.20;0.20;;;;;;;19.80;74.43;99287.59;5015657;28;20184;-88
2023/08/06 10:55:58;;;;;;;0.00;0.00;;;;;;;19.99;75.53;99305.75;5013897;28;20571;-87
2023/08/06 10:58:23;;;;;;;0.00;0.00;;;;;;;20.08;75.58;99302.53;4996823;28;20220;-86
2023/08/06 11:00:48;;;;;;;0.00;0.00;;;;;;;20.10;72.98;99286.28;5004592;28;20195;-87
2023/08/06 11:03:15;;;;;;;0.10;0.10;;;;;;;20.04;72.31;99274.03;5004475;28;20188;-86
2023/08/06 11:05:40;;;;;;;0.10;0.10;;;;;;;20.17;70.35;99266.84;5012599;28;20254;-86
2023/08/06 11:08:05;;;;;;;0.00;0.00;;;;;;;20.28;70.02;99280.66;5013969;28;20207;-87
2023/08/06 11:10:33;;;;;;;0.00;0.00;;;;;;;20.31;69.98;99283.41;5013867;28;20663;-87
2023/08/06 11:13:03;;;;;;;0.00;0.00;;;;;;;20.25;69.34;99275.91;5000766;28;20191;-86
2023/08/06 11:15:30;;;;;;;0.00;0.00;;;;;;;20.36;69.73;99287.72;5017421;28;20212;-87
2023/08/06 11:17:55;;;;;;;0.10;0.00;;;;;;;20.38;69.00;99269.47;5007557;28;20188;-87
2023/08/06 11:20:22;;;;;;;0.00;0.00;;;;;;;20.43;67.87;99271.88;5026809;28;20231;-86
2023/08/06 11:22:47;;;;;;;0.20;0.20;;;;;;;20.58;69.62;99277.31;4998063;28;20191;-86
2023/08/06 11:25:12;;;;;;;0.63;0.30;;;;;;;20.36;69.67;99269.09;5028009;28;20197;-87